createdAt,value
2022-07-26T00:00:13.428Z,32.25
2022-07-26T00:05:19.595Z,30.20
2022-07-26T00:07:49.125Z,26.70
2022-07-26T00:10:18.401Z,44.42
2022-07-26T00:12:47.627Z,53.83
2022-07-26T00:15:17.071Z,72.50
2022-07-26T00:17:46.328Z,68.25
2022-07-26T00:20:15.572Z,30.10
2022-07-26T00:22:46.519Z,38.28
2022-07-26T00:25:15.894Z,25.10
2022-07-26T00:27:45.179Z,21.77
2022-07-26T00:30:15.525Z,38.25
2022-07-26T00:32:44.921Z,27.90
2022-07-26T00:35:14.770Z,20.35
2022-07-26T00:37:45.722Z,24.50
2022-07-26T00:40:16.450Z,23.02
2022-07-26T00:42:46.025Z,26.73
2022-07-26T00:45:16.337Z,41.92
2022-07-26T00:47:46.885Z,27.25
2022-07-26T00:50:18.736Z,33.00
2022-07-26T00:52:51.808Z,22.35
2022-07-26T00:55:21.965Z,61.88
2022-07-26T00:57:51.815Z,25.67
2022-07-26T01:00:26.573Z,25.23
2022-07-26T01:02:56.301Z,22.80
2022-07-26T01:05:26.518Z,22.67
2022-07-26T01:07:57.681Z,33.80
2022-07-26T01:10:27.292Z,34.22
2022-07-26T01:12:56.453Z,28.33
2022-07-26T01:15:25.604Z,30.15
2022-07-26T01:17:54.882Z,30.17
2022-07-26T01:20:24.073Z,38.67
2022-07-26T01:22:54.682Z,28.50
2022-07-26T01:25:31.675Z,25.67
2022-07-26T01:28:00.942Z,25.48
2022-07-26T01:30:30.289Z,40.80
2022-07-26T01:32:59.781Z,27.80
2022-07-26T01:35:29.494Z,64.50
2022-07-26T01:38:00.037Z,23.52
2022-07-26T01:40:29.355Z,44.47
2022-07-26T01:42:58.466Z,63.55
2022-07-26T01:45:27.978Z,29.10
2022-07-26T01:47:57.516Z,26.15
2022-07-26T01:50:26.802Z,25.52
2022-07-26T01:52:56.390Z,23.15
2022-07-26T01:55:26.948Z,26.33
2022-07-26T01:57:56.446Z,32.67
2022-07-26T02:00:25.792Z,21.02
2022-07-26T02:02:55.481Z,24.48
2022-07-26T02:05:24.920Z,20.15
2022-07-26T02:07:54.124Z,36.15
2022-07-26T02:10:46.449Z,24.30
2022-07-26T02:13:16.729Z,19.02
2022-07-26T02:15:46.000Z,27.60
2022-07-26T02:18:15.372Z,23.23
2022-07-26T02:20:44.567Z,20.98
2022-07-26T02:23:14.444Z,22.00
2022-07-26T02:25:45.199Z,17.00
2022-07-26T02:28:14.411Z,17.38
2022-07-26T02:30:44.340Z,19.20
2022-07-26T02:33:28.948Z,17.70
2022-07-26T02:46:25.431Z,19.55
2022-07-26T02:48:54.815Z,18.35
2022-07-26T02:51:24.298Z,20.45
2022-07-26T02:53:54.038Z,18.95
2022-07-26T02:56:23.285Z,16.05
2022-07-26T02:58:52.668Z,19.08
2022-07-26T03:01:22.007Z,16.95
2022-07-26T03:03:52.911Z,18.23
2022-07-26T03:06:22.318Z,36.08
2022-07-26T03:08:52.034Z,20.30
2022-07-26T03:11:21.260Z,19.60
2022-07-26T03:13:50.396Z,22.33
2022-07-26T03:16:22.749Z,19.20
2022-07-26T03:18:55.609Z,22.52
2022-07-26T03:21:24.951Z,23.23
2022-07-26T03:23:54.102Z,35.45
2022-07-26T03:26:23.431Z,24.50
2022-07-26T03:28:52.983Z,22.30
2022-07-26T03:31:23.613Z,21.48
2022-07-26T03:33:55.240Z,21.95
2022-07-26T03:36:27.045Z,19.70
2022-07-26T03:38:56.556Z,32.25
2022-07-26T03:41:25.733Z,22.90
2022-07-26T03:43:55.112Z,18.88
2022-07-26T03:46:24.519Z,29.13
2022-07-26T03:48:55.169Z,22.45
2022-07-26T03:51:24.910Z,20.80
2022-07-26T03:53:54.475Z,18.73
2022-07-26T03:56:34.443Z,21.05
2022-07-26T03:59:07.267Z,25.48
2022-07-26T04:04:09.095Z,23.95
2022-07-26T04:06:38.889Z,25.13
2022-07-26T04:09:09.097Z,29.92
2022-07-26T04:11:38.538Z,30.65
2022-07-26T04:14:08.150Z,30.02
2022-07-26T04:16:42.902Z,27.27
2022-07-26T04:19:14.628Z,30.23
2022-07-26T04:21:43.821Z,29.15
2022-07-26T04:24:12.936Z,27.75
2022-07-26T04:26:42.191Z,25.98
2022-07-26T04:29:12.882Z,25.27
2022-07-26T04:31:42.086Z,29.77
2022-07-26T04:34:11.570Z,62.40
2022-07-26T04:36:42.405Z,41.65
2022-07-26T04:39:12.061Z,28.48
2022-07-26T04:41:41.213Z,46.92
2022-07-26T04:44:10.716Z,28.17
2022-07-26T04:46:40.361Z,103.35
2022-07-26T04:49:14.971Z,28.42
2022-07-26T04:51:47.023Z,28.65
2022-07-26T04:54:20.769Z,35.65
2022-07-26T04:56:50.228Z,26.85
2022-07-26T04:59:21.891Z,23.77
2022-07-26T05:01:51.493Z,30.80
2022-07-26T05:04:20.795Z,56.03
2022-07-26T05:06:51.614Z,28.23
2022-07-26T05:09:24.423Z,27.00
2022-07-26T05:14:25.292Z,29.50
2022-07-26T05:16:57.289Z,33.50
2022-07-26T05:19:26.577Z,31.05
2022-07-26T05:21:57.296Z,27.38
2022-07-26T05:24:26.767Z,26.25
2022-07-26T05:26:58.995Z,24.40
2022-07-26T05:29:31.061Z,28.00
2022-07-26T05:32:00.430Z,26.85
2022-07-26T05:34:29.802Z,26.10
2022-07-26T05:37:00.488Z,32.53
2022-07-26T05:39:29.823Z,28.08
2022-07-26T05:41:58.927Z,26.38
2022-07-26T05:44:30.906Z,28.48
2022-07-26T05:47:00.238Z,23.02
2022-07-26T05:49:40.348Z,28.75
2022-07-26T05:52:11.384Z,25.60
2022-07-26T05:54:40.959Z,32.55
2022-07-26T05:57:10.170Z,38.90
2022-07-26T05:59:39.376Z,84.70
2022-07-26T06:02:09.187Z,26.10
2022-07-26T06:04:38.476Z,36.58
2022-07-26T06:07:08.079Z,24.52
2022-07-26T06:09:38.768Z,25.10
2022-07-26T06:12:08.623Z,26.08
2022-07-26T06:14:37.940Z,44.05
2022-07-26T06:17:07.297Z,24.90
2022-07-26T06:19:36.809Z,23.95
2022-07-26T06:22:06.143Z,25.88
2022-07-26T06:24:35.410Z,28.27
2022-07-26T06:27:06.216Z,25.55
2022-07-26T06:29:35.644Z,25.38
2022-07-26T06:32:05.117Z,28.10
2022-07-26T06:34:34.500Z,26.63
2022-07-26T06:37:04.535Z,31.30
2022-07-26T06:39:33.808Z,30.92
2022-07-26T06:42:03.002Z,29.92
2022-07-26T06:44:33.630Z,31.92
2022-07-26T06:47:02.936Z,30.35
2022-07-26T06:49:32.331Z,30.42
2022-07-26T06:52:01.645Z,28.52
2022-07-26T06:54:30.834Z,31.75
2022-07-26T06:57:00.829Z,30.70
2022-07-26T06:59:30.153Z,28.98
2022-07-26T07:02:01.865Z,33.45
2022-07-26T07:04:32.394Z,31.27
2022-07-26T07:07:06.089Z,32.67
2022-07-26T07:09:36.586Z,29.67
2022-07-26T07:12:09.768Z,31.52
2022-07-26T07:14:40.500Z,31.15
2022-07-26T07:17:15.956Z,29.08
2022-07-26T07:19:47.847Z,35.13
2022-07-26T07:22:17.263Z,39.40
2022-07-26T07:24:46.700Z,32.53
2022-07-26T07:27:17.835Z,34.92
2022-07-26T07:29:47.023Z,31.42
2022-07-26T07:32:19.741Z,30.85
2022-07-26T07:34:49.901Z,32.33
2022-07-26T07:37:20.434Z,33.17
2022-07-26T07:39:50.617Z,32.17
2022-07-26T07:42:20.695Z,33.47
2022-07-26T07:44:50.313Z,31.20
2022-07-26T07:47:22.346Z,33.55
2022-07-26T07:49:51.886Z,37.63
2022-07-26T07:52:21.102Z,35.05
2022-07-26T07:54:50.636Z,60.72
2022-07-26T07:57:20.666Z,38.28
2022-07-26T07:59:53.640Z,37.05
2022-07-26T08:02:24.489Z,35.28
2022-07-26T08:04:54.347Z,34.38
2022-07-26T08:07:23.840Z,35.55
2022-07-26T08:10:03.539Z,32.88
2022-07-26T08:12:32.880Z,37.30
2022-07-26T08:15:02.537Z,36.55
2022-07-26T08:17:41.780Z,34.05
2022-07-26T08:20:15.805Z,31.35
2022-07-26T08:22:45.310Z,30.17
2022-07-26T08:25:14.623Z,33.80
2022-07-26T08:27:55.090Z,28.73
2022-07-26T08:30:32.259Z,31.40
2022-07-26T08:33:03.028Z,28.92
2022-07-26T08:35:32.345Z,29.33
2022-07-26T08:38:02.060Z,26.45
2022-07-26T08:40:31.436Z,26.58
2022-07-26T08:43:01.961Z,30.52
2022-07-26T08:45:33.119Z,35.05
2022-07-26T08:48:19.197Z,29.83
2022-07-26T08:50:49.283Z,27.33
2022-07-26T08:53:18.544Z,27.15
2022-07-26T08:56:06.413Z,31.10
2022-07-26T08:58:37.867Z,32.05
2022-07-26T09:01:09.950Z,31.60
2022-07-26T09:03:41.474Z,28.20
2022-07-26T09:06:17.475Z,36.30
2022-07-26T09:08:49.002Z,28.48
2022-07-26T09:11:30.128Z,33.15
2022-07-26T09:14:02.574Z,26.00
2022-07-26T09:16:37.251Z,27.02
2022-07-26T09:19:22.888Z,26.30
2022-07-26T09:21:53.297Z,27.05
2022-07-26T09:24:36.766Z,31.63
2022-07-26T09:27:09.424Z,32.25
2022-07-26T09:29:48.095Z,32.38
2022-07-26T09:32:19.913Z,29.23
2022-07-26T09:34:57.763Z,30.77
2022-07-26T09:37:39.060Z,26.02
2022-07-26T09:40:11.217Z,27.83
2022-07-26T09:42:54.569Z,28.10
2022-07-26T09:45:24.280Z,26.50
2022-07-26T09:47:54.127Z,28.88
2022-07-26T09:50:27.961Z,31.77
2022-07-26T09:53:10.715Z,26.88
2022-07-26T09:55:57.509Z,28.80
2022-07-26T09:58:28.425Z,28.90
2022-07-26T10:01:02.311Z,28.05
2022-07-26T10:03:32.606Z,27.95
2022-07-26T10:06:05.105Z,23.48
2022-07-26T10:11:08.408Z,25.45
2022-07-26T10:13:38.874Z,26.33
2022-07-26T10:16:28.739Z,21.58
2022-07-26T10:18:59.253Z,30.42
2022-07-26T10:21:31.872Z,24.30
2022-07-26T10:24:02.710Z,35.90
2022-07-26T10:26:45.754Z,22.95
2022-07-26T10:29:31.516Z,23.58
2022-07-26T10:32:21.458Z,24.30
2022-07-26T10:34:50.921Z,31.02
2022-07-26T10:37:30.627Z,29.73
2022-07-26T10:40:22.774Z,28.83
2022-07-26T10:42:52.494Z,31.57
2022-07-26T10:45:24.437Z,21.23
2022-07-26T10:48:16.676Z,30.35
2022-07-26T10:50:48.533Z,24.85
2022-07-26T10:53:24.558Z,24.55
2022-07-26T10:55:55.822Z,25.67
2022-07-26T10:58:28.944Z,21.70
2022-07-26T11:01:01.481Z,34.15
2022-07-26T11:03:42.266Z,23.98
2022-07-26T11:06:14.227Z,20.73
2022-07-26T11:08:48.702Z,20.17
2022-07-26T11:11:31.044Z,21.63
2022-07-26T11:14:09.109Z,22.40
2022-07-26T11:16:41.208Z,24.05
2022-07-26T11:19:19.029Z,29.67
2022-07-26T11:21:56.245Z,29.60
2022-07-26T11:24:27.492Z,31.55
2022-07-26T11:26:56.833Z,27.88
2022-07-26T11:29:38.463Z,28.13
2022-07-26T11:32:19.218Z,23.17
2022-07-26T11:34:58.542Z,21.75
2022-07-26T11:37:28.210Z,29.00
2022-07-26T11:39:58.912Z,35.35
2022-07-26T11:42:28.351Z,40.22
2022-07-26T11:44:57.547Z,54.60
2022-07-26T11:47:26.984Z,67.18
2022-07-26T11:52:46.000Z,63.33
2022-07-26T11:55:16.757Z,71.80
2022-07-26T11:57:46.113Z,65.97
2022-07-26T12:00:18.328Z,77.50
2022-07-26T12:02:50.345Z,73.05
2022-07-26T12:05:25.716Z,56.15
2022-07-26T12:07:58.084Z,46.70
2022-07-26T12:10:29.600Z,42.85
2022-07-26T12:13:10.093Z,49.25
2022-07-26T12:15:47.767Z,35.70
2022-07-26T12:18:25.725Z,40.85
2022-07-26T12:21:06.715Z,28.02
2022-07-26T12:23:45.252Z,31.40
2022-07-26T12:26:27.906Z,33.65
2022-07-26T12:28:58.381Z,33.25
2022-07-26T12:31:30.178Z,25.42
2022-07-26T12:34:00.318Z,48.30
2022-07-26T12:36:30.484Z,34.50
2022-07-26T12:39:01.332Z,29.65
2022-07-26T12:41:41.042Z,52.63
2022-07-26T12:44:12.617Z,35.13
2022-07-26T12:46:44.992Z,48.63
2022-07-26T12:49:14.805Z,64.45
2022-07-26T12:51:44.924Z,53.80
2022-07-26T12:54:14.751Z,49.60
2022-07-26T12:56:46.367Z,45.25
2022-07-26T12:59:18.124Z,44.30
2022-07-26T13:01:47.540Z,41.42
2022-07-26T13:04:17.398Z,46.13
2022-07-26T13:06:46.837Z,44.90
2022-07-26T13:09:17.186Z,35.55
2022-07-26T13:11:48.269Z,31.58
2022-07-26T13:14:17.594Z,29.38
2022-07-26T13:16:46.904Z,35.05
2022-07-26T13:19:16.696Z,37.25
2022-07-26T13:21:52.294Z,53.67
2022-07-26T13:24:22.504Z,51.88
2022-07-26T13:26:53.743Z,54.67
2022-07-26T13:29:23.539Z,44.40
2022-07-26T13:31:53.921Z,56.35
2022-07-26T13:34:24.255Z,51.83
2022-07-26T13:36:53.853Z,79.78
2022-07-26T13:39:23.120Z,58.55
2022-07-26T13:41:54.433Z,70.15
2022-07-26T13:44:24.289Z,67.15
2022-07-26T13:46:53.745Z,60.63
2022-07-26T13:49:23.119Z,60.00
2022-07-26T13:51:58.610Z,69.15
2022-07-26T13:54:31.349Z,70.85
2022-07-26T13:57:05.355Z,67.75
2022-07-26T13:59:35.081Z,81.32
2022-07-26T14:02:05.754Z,58.47
2022-07-26T14:04:36.147Z,56.33
2022-07-26T14:07:05.397Z,72.63
2022-07-26T14:09:34.847Z,80.82
2022-07-26T14:12:06.440Z,75.35
2022-07-26T14:14:37.938Z,69.05
2022-07-26T14:17:07.289Z,69.68
2022-07-26T14:19:37.081Z,81.88
2022-07-26T14:22:06.421Z,67.35
2022-07-26T14:24:35.818Z,86.97
2022-07-26T14:27:06.623Z,76.45
2022-07-26T14:29:35.895Z,99.32
2022-07-26T14:32:05.668Z,71.03
2022-07-26T14:34:34.933Z,75.13
2022-07-26T14:37:09.923Z,76.70
2022-07-26T14:39:53.502Z,58.45
2022-07-26T14:42:25.265Z,75.82
2022-07-26T14:44:54.617Z,65.93
2022-07-26T14:47:23.898Z,68.80
2022-07-26T14:49:53.270Z,82.93
2022-07-26T14:52:22.687Z,74.80
2022-07-26T14:54:51.971Z,76.65
2022-07-26T14:57:21.290Z,59.53
2022-07-26T14:59:52.017Z,75.95
2022-07-26T15:02:21.659Z,71.45
2022-07-26T15:04:51.279Z,63.85
2022-07-26T15:07:20.611Z,73.28
2022-07-26T15:09:49.918Z,79.40
2022-07-26T15:12:19.324Z,70.43
2022-07-26T15:14:48.563Z,79.72
2022-07-26T15:17:19.665Z,90.63
2022-07-26T15:19:49.390Z,76.03
2022-07-26T15:22:18.891Z,73.28
2022-07-26T15:24:48.139Z,76.43
2022-07-26T15:27:17.479Z,82.95
2022-07-26T15:29:48.670Z,80.85
2022-07-26T15:32:20.995Z,102.32
2022-07-26T15:37:19.941Z,67.38
2022-07-26T15:39:49.255Z,71.75
2022-07-26T15:42:22.057Z,104.30
2022-07-26T15:44:52.785Z,109.17
2022-07-26T15:47:52.495Z,60.17
2022-07-26T15:50:15.937Z,45.28
2022-07-26T15:52:48.580Z,38.60
2022-07-26T15:55:19.585Z,61.15
2022-07-26T15:57:48.816Z,48.92
2022-07-26T16:00:19.112Z,65.68
2022-07-26T16:02:50.334Z,69.72
2022-07-26T16:05:20.103Z,83.67
2022-07-26T16:07:49.500Z,61.35
2022-07-26T16:10:19.688Z,70.88
2022-07-26T16:12:48.909Z,77.32
2022-07-26T16:15:18.113Z,76.88
2022-07-26T16:17:48.780Z,69.05
2022-07-26T16:20:19.596Z,79.00
2022-07-26T16:22:49.156Z,79.85
2022-07-26T16:25:18.628Z,60.63
2022-07-26T16:27:47.896Z,71.05
2022-07-26T16:30:17.886Z,74.28
2022-07-26T16:32:48.791Z,75.35
2022-07-26T16:35:18.574Z,62.08
2022-07-26T16:37:49.587Z,62.92
2022-07-26T16:40:19.084Z,56.13
2022-07-26T16:42:48.398Z,51.97
2022-07-26T16:45:17.736Z,46.58
2022-07-26T16:47:48.439Z,63.03
2022-07-26T16:50:27.397Z,44.25
2022-07-26T16:52:57.460Z,44.28
2022-07-26T16:55:26.977Z,45.28
2022-07-26T16:57:56.348Z,47.30
2022-07-26T17:00:25.716Z,45.35
2022-07-26T17:02:56.753Z,51.97
2022-07-26T17:05:26.400Z,49.00
2022-07-26T17:07:55.760Z,40.55
2022-07-26T17:10:28.164Z,47.25
2022-07-26T17:12:57.505Z,39.72
2022-07-26T17:15:26.964Z,42.35
2022-07-26T17:17:57.621Z,54.17
2022-07-26T17:20:27.458Z,35.60
2022-07-26T17:22:57.154Z,34.92
2022-07-26T17:25:26.633Z,38.15
2022-07-26T17:27:55.843Z,45.08
2022-07-26T17:30:25.552Z,57.78
2022-07-26T17:32:56.264Z,47.63
2022-07-26T17:35:25.779Z,32.33
2022-07-26T17:37:56.516Z,36.38
2022-07-26T17:40:26.057Z,33.35
2022-07-26T17:42:56.487Z,32.17
2022-07-26T17:45:25.647Z,36.15
2022-07-26T17:47:56.568Z,37.30
2022-07-26T17:50:36.431Z,43.85
2022-07-26T17:53:07.287Z,35.85
2022-07-26T17:55:36.598Z,37.97
2022-07-26T17:58:05.747Z,34.60
2022-07-26T18:00:35.087Z,47.75
2022-07-26T18:03:06.050Z,35.00
2022-07-26T18:05:39.605Z,38.15
2022-07-26T18:08:10.649Z,41.10
2022-07-26T18:10:40.295Z,29.48
2022-07-26T18:13:10.271Z,43.90
2022-07-26T18:15:39.787Z,43.20
2022-07-26T18:18:11.345Z,32.40
2022-07-26T18:20:40.764Z,47.53
2022-07-26T18:23:10.016Z,40.25
2022-07-26T18:25:39.517Z,33.13
2022-07-26T18:28:09.697Z,36.08
2022-07-26T18:30:39.276Z,41.10
2022-07-26T18:33:12.033Z,30.08
2022-07-26T18:35:41.492Z,28.92
2022-07-26T18:38:12.092Z,22.33
2022-07-26T18:40:41.459Z,37.00
2022-07-26T18:43:11.042Z,38.38
2022-07-26T18:45:40.524Z,30.60
2022-07-26T18:48:11.486Z,25.55
2022-07-26T18:50:41.155Z,23.10
2022-07-26T18:53:12.762Z,23.73
2022-07-26T18:55:42.018Z,25.35
2022-07-26T18:58:11.593Z,28.48
2022-07-26T19:00:41.159Z,28.25
2022-07-26T19:03:11.822Z,24.75
2022-07-26T19:05:41.528Z,30.42
2022-07-26T19:08:10.906Z,28.05
2022-07-26T19:10:40.104Z,27.55
2022-07-26T19:13:09.483Z,26.90
2022-07-26T19:15:38.774Z,34.35
2022-07-26T19:18:16.210Z,36.03
2022-07-26T19:20:45.895Z,29.05
2022-07-26T19:23:15.326Z,37.92
2022-07-26T19:25:44.697Z,30.25
2022-07-26T19:28:16.424Z,28.92
2022-07-26T19:30:46.264Z,27.45
2022-07-26T19:33:17.041Z,32.85
2022-07-26T19:35:46.414Z,28.80
2022-07-26T19:38:15.578Z,29.90
2022-07-26T19:40:45.601Z,32.92
2022-07-26T19:43:15.000Z,29.95
2022-07-26T19:45:44.609Z,29.60
2022-07-26T19:48:14.658Z,30.08
2022-07-26T19:50:45.542Z,32.33
2022-07-26T19:53:15.311Z,29.38
2022-07-26T19:55:44.861Z,28.85
2022-07-26T19:58:14.356Z,30.08
2022-07-26T20:00:44.067Z,31.48
2022-07-26T20:03:13.988Z,33.47
2022-07-26T20:05:45.404Z,30.98
2022-07-26T20:08:15.149Z,31.92
2022-07-26T20:10:44.700Z,32.58
2022-07-26T20:13:13.937Z,32.28
2022-07-26T20:15:43.622Z,33.20
2022-07-26T20:18:12.820Z,33.17
2022-07-26T20:20:44.487Z,34.40
2022-07-26T20:23:13.808Z,33.85
2022-07-26T20:25:42.989Z,34.55
2022-07-26T20:28:12.326Z,34.33
2022-07-26T20:30:41.636Z,34.88
2022-07-26T20:33:11.302Z,36.78
2022-07-26T20:35:40.788Z,36.10
2022-07-26T20:38:11.603Z,39.28
2022-07-26T20:40:41.563Z,37.08
2022-07-26T20:43:11.942Z,40.10
2022-07-26T20:45:43.630Z,37.30
2022-07-26T20:48:13.027Z,37.70
2022-07-26T20:50:42.436Z,44.58
2022-07-26T20:53:13.139Z,42.75
2022-07-26T20:55:42.641Z,44.83
2022-07-26T20:58:12.165Z,48.58
2022-07-26T21:00:43.580Z,42.67
2022-07-26T21:03:13.912Z,45.50
2022-07-26T21:05:43.783Z,45.72
2022-07-26T21:08:16.983Z,48.30
2022-07-26T21:10:47.643Z,46.13
2022-07-26T21:13:16.914Z,43.08
2022-07-26T21:15:46.155Z,38.72
2022-07-26T21:18:15.600Z,39.13
2022-07-26T21:20:46.435Z,36.17
2022-07-26T21:23:18.377Z,42.33
2022-07-26T21:25:48.050Z,38.83
2022-07-26T21:28:18.040Z,40.47
2022-07-26T21:30:47.699Z,41.67
2022-07-26T21:33:17.162Z,42.05
2022-07-26T21:35:46.770Z,42.08
2022-07-26T21:38:17.520Z,44.22
2022-07-26T21:40:47.706Z,45.00
2022-07-26T21:43:19.699Z,44.83
2022-07-26T21:45:49.124Z,46.47
2022-07-26T21:48:18.439Z,48.40
2022-07-26T21:50:47.750Z,44.47
2022-07-26T21:53:18.609Z,44.72
2022-07-26T21:55:47.924Z,45.72
2022-07-26T21:58:17.318Z,45.08
2022-07-26T22:00:46.647Z,47.85
2022-07-26T22:03:15.949Z,45.65
2022-07-26T22:05:46.946Z,45.63
2022-07-26T22:10:49.653Z,43.25
2022-07-26T22:13:19.223Z,47.17
2022-07-26T22:15:49.033Z,48.70
2022-07-26T22:18:20.324Z,47.92
2022-07-26T22:20:50.420Z,47.17
2022-07-26T22:23:23.067Z,47.42
2022-07-26T22:28:21.301Z,44.20
2022-07-26T22:30:50.628Z,44.42
2022-07-26T22:33:19.858Z,46.70
2022-07-26T22:35:50.079Z,44.53
2022-07-26T22:38:20.891Z,47.83
2022-07-26T22:40:50.370Z,48.15
2022-07-26T22:43:19.644Z,47.03
2022-07-26T22:45:49.076Z,48.50
2022-07-26T22:48:18.453Z,47.33
2022-07-26T22:50:47.601Z,45.30
2022-07-26T22:53:16.891Z,49.70
2022-07-26T22:55:47.453Z,53.80
2022-07-26T22:58:16.657Z,49.25
2022-07-26T23:00:45.996Z,47.53
2022-07-26T23:03:19.531Z,49.03
2022-07-26T23:05:52.277Z,47.08
2022-07-26T23:08:47.086Z,49.08
2022-07-26T23:11:12.522Z,48.28
2022-07-26T23:13:41.893Z,49.00
2022-07-26T23:16:11.129Z,48.97
2022-07-26T23:18:40.376Z,49.92
2022-07-26T23:21:09.582Z,53.33
2022-07-26T23:23:39.000Z,51.78
2022-07-26T23:26:08.339Z,56.95
2022-07-26T23:28:38.941Z,55.38
2022-07-26T23:31:10.930Z,58.58
2022-07-26T23:33:51.358Z,53.60
2022-07-26T23:36:28.437Z,59.10
2022-07-26T23:38:59.912Z,57.50
2022-07-26T23:41:30.033Z,60.05
2022-07-26T23:44:00.668Z,63.25
2022-07-26T23:46:30.164Z,55.97
2022-07-26T23:49:00.243Z,58.72
2022-07-26T23:51:29.523Z,61.97
2022-07-26T23:53:59.179Z,59.90
2022-07-26T23:56:28.496Z,60.10
2022-07-26T23:58:59.184Z,61.90
